createdAt,value
2017-09-09T03:31:39.860Z,16.20
2017-09-09T03:34:07.450Z,16.20
2017-09-09T03:36:35.522Z,16.20
2017-09-09T03:39:03.113Z,16.10
2017-09-09T03:41:31.472Z,16.10
2017-09-09T03:43:59.421Z,16.10
2017-09-09T03:46:27.037Z,16.20
2017-09-09T03:48:54.696Z,16.10
2017-09-09T03:51:23.067Z,16.00
2017-09-09T03:53:51.428Z,16.00
2017-09-09T03:56:20.193Z,15.90
2017-09-09T03:58:47.818Z,15.90
2017-09-09T04:01:15.429Z,15.90
2017-09-09T04:03:43.491Z,15.90
2017-09-09T04:06:11.101Z,16.00
2017-09-09T04:08:38.690Z,16.00
2017-09-09T04:11:06.402Z,15.90
2017-09-09T04:13:34.760Z,15.80
2017-09-09T04:16:02.833Z,15.80
2017-09-09T04:18:30.428Z,15.80
2017-09-09T04:20:58.018Z,15.80
2017-09-09T04:23:25.664Z,15.70
2017-09-09T04:25:53.249Z,15.70
2017-09-09T04:28:21.220Z,15.70
2017-09-09T04:30:48.828Z,15.70
2017-09-09T04:33:17.181Z,15.70
2017-09-09T04:35:44.802Z,15.70
2017-09-09T04:38:12.399Z,15.70
2017-09-09T04:40:40.382Z,15.70
2017-09-09T04:43:08.751Z,15.80
2017-09-09T04:45:36.365Z,15.80
2017-09-09T04:48:04.355Z,15.80
2017-09-09T04:50:31.953Z,15.80
2017-09-09T04:53:00.339Z,15.80
2017-09-09T04:55:29.099Z,15.90
2017-09-09T04:57:56.697Z,15.90
2017-09-09T05:00:25.054Z,15.80
2017-09-09T05:02:52.680Z,15.80
2017-09-09T05:05:20.282Z,15.80
2017-09-09T05:07:49.012Z,15.80
2017-09-09T05:10:16.619Z,15.80
2017-09-09T05:12:44.994Z,15.70
2017-09-09T05:15:12.633Z,15.70
2017-09-09T05:17:44.697Z,15.70
2017-09-09T05:20:12.878Z,15.60
2017-09-09T05:22:40.514Z,15.50
2017-09-09T05:25:08.122Z,15.50
2017-09-09T05:27:36.610Z,15.70
2017-09-09T05:30:05.506Z,15.90
2017-09-09T05:32:34.247Z,16.00
2017-09-09T05:35:01.845Z,15.90
2017-09-09T05:37:29.452Z,15.90
2017-09-09T05:39:57.573Z,15.80
2017-09-09T05:42:25.195Z,15.90
2017-09-09T05:44:52.793Z,16.00
2017-09-09T05:47:20.790Z,16.10
2017-09-09T05:49:48.393Z,16.20
2017-09-09T05:52:15.977Z,16.30
2017-09-09T05:54:43.597Z,16.40
2017-09-09T05:57:11.179Z,16.60
2017-09-09T05:59:39.160Z,16.80
2017-09-09T06:02:06.811Z,17.00
2017-09-09T06:04:34.426Z,17.10
2017-09-09T06:07:02.061Z,17.20
2017-09-09T06:09:29.650Z,17.10
2017-09-09T06:11:57.672Z,17.10
2017-09-09T06:14:25.270Z,17.20
2017-09-09T06:16:53.629Z,17.50
2017-09-09T06:19:22.006Z,17.60
2017-09-09T06:21:49.615Z,17.60
2017-09-09T06:24:17.222Z,17.60
2017-09-09T06:26:45.304Z,17.80
2017-09-09T06:29:13.703Z,17.90
2017-09-09T06:31:41.304Z,17.80
2017-09-09T06:34:08.935Z,17.90
2017-09-09T06:36:36.543Z,18.00
2017-09-09T06:39:04.492Z,18.10
2017-09-09T06:41:32.080Z,18.30
2017-09-09T06:43:59.672Z,18.40
2017-09-09T06:46:29.241Z,18.60
2017-09-09T06:48:56.849Z,18.50
2017-09-09T06:51:24.445Z,18.80
2017-09-09T06:53:52.432Z,19.00
2017-09-09T06:56:20.030Z,19.10
2017-09-09T06:58:47.618Z,19.00
2017-09-09T07:01:15.626Z,18.80
2017-09-09T07:03:43.220Z,18.70
2017-09-09T07:06:11.695Z,18.80
2017-09-09T07:08:40.085Z,18.70
2017-09-09T07:11:07.681Z,18.70
2017-09-09T07:13:35.684Z,18.70
2017-09-09T07:16:03.285Z,18.80
2017-09-09T07:18:30.880Z,19.00
2017-09-09T07:20:58.942Z,19.10
2017-09-09T07:23:26.586Z,19.40
2017-09-09T07:25:54.192Z,19.60
2017-09-09T07:28:21.787Z,19.80
2017-09-09T07:30:50.156Z,19.90
2017-09-09T07:33:18.900Z,20.00
2017-09-09T07:35:46.576Z,20.00
2017-09-09T07:38:14.180Z,20.20
2017-09-09T07:40:41.803Z,20.40
2017-09-09T07:43:09.444Z,20.50
2017-09-09T07:45:37.441Z,20.30
2017-09-09T07:48:05.810Z,20.00
2017-09-09T07:50:33.410Z,20.00
2017-09-09T07:53:01.029Z,20.20
2017-09-09T07:55:28.630Z,20.20
2017-09-09T07:57:56.649Z,20.30
2017-09-09T08:00:24.485Z,20.30
2017-09-09T08:02:52.085Z,20.20
2017-09-09T08:05:19.713Z,20.20
2017-09-09T08:07:47.323Z,20.10
2017-09-09T08:10:16.258Z,20.20
2017-09-09T08:12:43.861Z,20.20
2017-09-09T08:15:11.460Z,20.30
2017-09-09T08:17:39.072Z,20.50
2017-09-09T08:20:06.676Z,20.70
2017-09-09T08:22:35.604Z,20.80
2017-09-09T08:25:03.238Z,20.80
2017-09-09T08:27:31.028Z,20.80
2017-09-09T08:29:58.692Z,20.80
2017-09-09T08:32:26.300Z,20.70
2017-09-09T08:34:55.048Z,20.40
2017-09-09T08:37:22.661Z,20.40
2017-09-09T08:39:51.207Z,20.10
2017-09-09T08:42:19.289Z,20.10
2017-09-09T08:44:46.897Z,20.10
2017-09-09T08:47:14.505Z,20.10
2017-09-09T08:49:42.605Z,20.20
2017-09-09T08:52:10.947Z,20.20
2017-09-09T08:54:38.552Z,20.20
2017-09-09T08:57:06.589Z,20.10
2017-09-09T08:59:34.205Z,19.90
2017-09-09T09:02:01.810Z,19.90
2017-09-09T09:04:29.874Z,20.10
2017-09-09T09:06:57.505Z,20.00
2017-09-09T09:09:25.170Z,20.00
2017-09-09T09:11:52.784Z,19.80
2017-09-09T09:14:21.247Z,19.80
2017-09-09T09:16:50.020Z,19.70
2017-09-09T09:19:17.632Z,19.70
2017-09-09T09:21:45.248Z,19.70
2017-09-09T09:24:13.321Z,19.80
2017-09-09T09:26:40.941Z,19.80
2017-09-09T09:29:08.541Z,19.80
2017-09-09T09:31:36.183Z,19.70
2017-09-09T09:34:03.833Z,19.80
2017-09-09T09:36:31.783Z,19.90
2017-09-09T09:38:59.389Z,19.70
2017-09-09T09:41:26.990Z,19.60
2017-09-09T09:43:55.365Z,19.30
2017-09-09T09:46:22.967Z,19.30
2017-09-09T09:48:50.940Z,19.50
2017-09-09T09:51:18.557Z,19.70
2017-09-09T09:53:46.934Z,19.70
2017-09-09T09:56:15.312Z,19.80
2017-09-09T09:58:43.689Z,19.80
2017-09-09T10:01:12.442Z,19.60
2017-09-09T10:03:40.067Z,19.60
2017-09-09T10:06:07.673Z,19.60
2017-09-09T10:08:35.642Z,19.50
2017-09-09T10:11:03.242Z,19.50
2017-09-09T10:13:30.849Z,19.50
2017-09-09T10:15:58.487Z,19.50
2017-09-09T10:18:26.097Z,19.50
2017-09-09T10:20:54.880Z,19.30
2017-09-09T10:23:22.481Z,19.40
2017-09-09T10:25:50.583Z,19.00
2017-09-09T10:28:18.227Z,19.00
2017-09-09T10:30:45.849Z,18.90
2017-09-09T10:33:14.610Z,18.60
2017-09-09T10:35:42.212Z,18.50
2017-09-09T10:38:09.815Z,18.60
2017-09-09T10:40:37.440Z,18.60
2017-09-09T10:43:05.046Z,18.40
2017-09-09T10:45:33.131Z,18.40
2017-09-09T10:48:00.750Z,18.60
2017-09-09T10:50:28.378Z,18.70
2017-09-09T10:52:56.774Z,18.70
2017-09-09T10:55:24.391Z,18.70
2017-09-09T10:57:52.353Z,18.60
2017-09-09T11:00:19.962Z,18.60
2017-09-09T11:02:47.567Z,18.60
2017-09-09T11:05:15.540Z,18.70
2017-09-09T11:07:43.149Z,18.60
2017-09-09T11:10:10.741Z,18.50
2017-09-09T11:12:38.440Z,18.60
2017-09-09T11:15:06.816Z,18.50
2017-09-09T11:17:34.810Z,18.50
2017-09-09T11:20:03.171Z,18.40
2017-09-09T11:22:31.543Z,18.30
2017-09-09T11:24:59.182Z,18.30
2017-09-09T11:27:26.941Z,18.20
2017-09-09T11:29:54.561Z,18.10
2017-09-09T11:32:22.182Z,18.20
2017-09-09T11:34:49.787Z,18.40
2017-09-09T11:37:17.400Z,18.50
2017-09-09T11:39:45.034Z,18.60
2017-09-09T11:42:12.766Z,18.80
2017-09-09T11:44:40.792Z,18.80
2017-09-09T11:47:08.397Z,18.60
2017-09-09T11:49:35.987Z,18.70
2017-09-09T11:52:04.004Z,18.60
2017-09-09T11:54:32.391Z,18.60
2017-09-09T11:57:00.767Z,18.80
2017-09-09T11:59:29.493Z,18.90
2017-09-09T12:01:57.111Z,18.90
2017-09-09T12:04:25.537Z,19.00
2017-09-09T12:06:53.545Z,19.00
2017-09-09T12:09:21.159Z,18.90
2017-09-09T12:11:48.793Z,18.80
2017-09-09T12:14:17.311Z,18.90
2017-09-09T12:16:44.915Z,18.80
2017-09-09T12:19:12.516Z,18.70
2017-09-09T12:21:40.560Z,18.60
2017-09-09T12:24:08.931Z,18.90
2017-09-09T12:26:37.293Z,19.00
2017-09-09T12:29:05.238Z,18.90
2017-09-09T12:31:32.865Z,19.10
2017-09-09T12:34:00.481Z,19.10
2017-09-09T12:36:28.118Z,19.20
2017-09-09T12:38:55.725Z,19.30
2017-09-09T12:41:24.503Z,19.40
2017-09-09T12:43:52.288Z,19.40
2017-09-09T12:46:20.656Z,19.30
2017-09-09T12:48:49.543Z,19.30
2017-09-09T12:51:17.904Z,19.30
2017-09-09T12:53:45.512Z,19.30
2017-09-09T12:56:13.532Z,19.00
2017-09-09T12:58:41.189Z,18.80
2017-09-09T13:01:08.803Z,18.60
2017-09-09T13:03:36.446Z,18.60
2017-09-09T13:06:04.816Z,18.50
2017-09-09T13:08:33.589Z,18.50
2017-09-09T13:11:01.207Z,18.50
2017-09-09T13:13:28.828Z,18.60
2017-09-09T13:15:57.278Z,18.60
2017-09-09T13:18:24.884Z,18.60
2017-09-09T13:20:53.638Z,18.50
2017-09-09T13:23:21.244Z,18.50
2017-09-09T13:25:48.842Z,18.50
2017-09-09T13:28:16.926Z,18.30
2017-09-09T13:30:44.800Z,18.30
2017-09-09T13:33:12.406Z,18.40
2017-09-09T13:35:41.299Z,18.40
2017-09-09T13:38:08.912Z,18.30
2017-09-09T13:40:36.555Z,18.30
2017-09-09T13:43:04.545Z,18.30
2017-09-09T13:45:32.139Z,18.20
2017-09-09T13:47:59.722Z,18.00
2017-09-09T13:50:27.339Z,17.90
2017-09-09T13:52:55.722Z,17.90
2017-09-09T13:55:23.764Z,17.90
2017-09-09T13:57:51.367Z,17.70
2017-09-09T14:00:18.974Z,17.70
2017-09-09T14:02:46.600Z,17.70
2017-09-09T14:05:14.193Z,17.50
2017-09-09T14:07:42.914Z,17.30
2017-09-09T14:10:11.277Z,17.20
2017-09-09T14:12:39.670Z,17.20
2017-09-09T14:15:07.294Z,17.20
2017-09-09T14:17:34.920Z,17.20
2017-09-09T14:20:03.049Z,17.20
2017-09-09T14:22:30.869Z,17.00
2017-09-09T14:24:58.472Z,17.00
2017-09-09T14:27:26.543Z,17.10
2017-09-09T14:29:54.143Z,17.20
2017-09-09T14:32:22.515Z,17.30
2017-09-09T14:34:51.268Z,17.30
2017-09-09T14:37:18.869Z,17.30
2017-09-09T14:39:46.523Z,17.10
2017-09-09T14:42:15.246Z,17.30
2017-09-09T14:44:42.865Z,17.30
2017-09-09T14:47:11.235Z,17.50
2017-09-09T14:49:39.285Z,17.50
2017-09-09T14:52:06.901Z,17.50
2017-09-09T14:54:34.498Z,17.60
2017-09-09T14:57:02.106Z,17.50
2017-09-09T14:59:30.473Z,17.40
2017-09-09T15:01:59.244Z,17.40
2017-09-09T15:04:27.772Z,17.30
2017-09-09T15:06:55.362Z,17.50
2017-09-09T15:09:23.398Z,17.40
2017-09-09T15:11:51.008Z,17.50
2017-09-09T15:14:18.613Z,17.50
2017-09-09T15:16:46.246Z,17.50
2017-09-09T15:19:13.845Z,17.40
2017-09-09T15:21:41.814Z,17.30
2017-09-09T15:24:09.410Z,17.20
2017-09-09T15:26:37.012Z,17.10
2017-09-09T15:29:05.742Z,17.10
2017-09-09T15:31:33.342Z,17.10
2017-09-09T15:34:00.951Z,17.10
2017-09-09T15:36:28.566Z,17.00
2017-09-09T15:38:56.972Z,17.30
2017-09-09T15:41:24.570Z,17.30
2017-09-09T15:43:52.196Z,17.30
2017-09-09T15:46:19.790Z,17.50
2017-09-09T15:48:48.529Z,17.60
2017-09-09T15:51:16.910Z,17.60
2017-09-09T15:53:44.546Z,17.60
2017-09-09T15:56:12.617Z,17.70
2017-09-09T15:58:40.220Z,17.60
2017-09-09T16:01:07.813Z,17.50
2017-09-09T16:03:35.905Z,17.40
2017-09-09T16:06:03.498Z,17.50
2017-09-09T16:08:31.878Z,17.40
2017-09-09T16:10:59.840Z,17.40
2017-09-09T16:13:28.223Z,17.30
2017-09-09T16:15:55.871Z,17.30
2017-09-09T16:18:24.249Z,17.20
2017-09-09T16:20:52.689Z,17.20
2017-09-09T16:23:20.693Z,17.20
2017-09-09T16:25:48.322Z,17.10
2017-09-09T16:28:15.929Z,17.10
2017-09-09T16:30:44.711Z,17.10
2017-09-09T16:33:13.068Z,17.10
2017-09-09T16:35:40.668Z,17.10
2017-09-09T16:38:09.400Z,17.20
2017-09-09T16:40:37.764Z,17.20
2017-09-09T16:43:05.568Z,17.20
2017-09-09T16:45:33.509Z,17.20
2017-09-09T16:48:01.201Z,17.10
2017-09-09T16:50:28.809Z,17.10
2017-09-09T16:52:57.215Z,17.10
2017-09-09T16:55:24.992Z,17.10
2017-09-09T16:57:52.974Z,17.20
2017-09-09T17:00:20.624Z,17.10
2017-09-09T17:02:48.472Z,17.00
2017-09-09T17:05:16.103Z,17.10
2017-09-09T17:07:43.704Z,17.30
2017-09-09T17:10:12.447Z,17.40
2017-09-09T17:12:40.093Z,17.40
2017-09-09T17:15:08.480Z,17.40
2017-09-09T17:17:37.190Z,17.40
2017-09-09T17:20:04.794Z,17.40
2017-09-09T17:22:32.401Z,17.20
2017-09-09T17:25:00.394Z,17.10
2017-09-09T17:27:28.001Z,17.20
2017-09-09T17:29:56.475Z,17.20
2017-09-09T17:32:24.362Z,17.30
2017-09-09T17:34:52.849Z,17.10
2017-09-09T17:37:20.450Z,17.10
2017-09-09T17:39:48.096Z,17.10
2017-09-09T17:42:15.695Z,17.00
2017-09-09T17:44:43.660Z,17.00
2017-09-09T17:47:11.262Z,17.10
2017-09-09T17:49:38.874Z,17.00
2017-09-09T17:52:06.480Z,17.00
2017-09-09T17:54:34.089Z,16.90
2017-09-09T17:57:02.026Z,16.80
2017-09-09T17:59:29.621Z,16.60
2017-09-09T18:01:57.310Z,16.50
2017-09-09T18:04:25.694Z,16.80
2017-09-09T18:06:54.102Z,16.60
2017-09-09T18:09:21.833Z,16.60
2017-09-09T18:11:50.201Z,16.40
2017-09-09T18:14:17.823Z,16.40
2017-09-09T18:16:45.467Z,16.60
2017-09-09T18:19:13.044Z,16.70
2017-09-09T18:21:40.773Z,16.90
2017-09-09T18:24:08.390Z,16.80
2017-09-09T18:26:35.985Z,16.90
2017-09-09T18:29:04.387Z,16.80
2017-09-09T18:31:32.003Z,16.80
2017-09-09T18:34:00.661Z,16.80
2017-09-09T18:36:28.269Z,16.80
2017-09-09T18:38:56.682Z,16.90
2017-09-09T18:41:24.305Z,16.90
2017-09-09T18:43:52.668Z,16.80
2017-09-09T18:46:20.561Z,16.80
2017-09-09T18:48:48.930Z,17.00
2017-09-09T18:51:17.350Z,17.00
2017-09-09T18:53:44.969Z,17.00
2017-09-09T18:56:13.371Z,16.90
2017-09-09T18:58:41.858Z,16.80
2017-09-09T19:01:09.488Z,16.80
2017-09-09T19:03:37.880Z,16.90
2017-09-09T19:06:06.281Z,16.80
2017-09-09T19:08:33.878Z,16.80
2017-09-09T19:11:02.406Z,16.80
2017-09-09T19:13:30.026Z,16.70
2017-09-09T19:15:57.637Z,16.60
2017-09-09T19:18:25.622Z,16.50
2017-09-09T19:20:53.231Z,16.50
2017-09-09T19:23:20.980Z,16.60
2017-09-09T19:25:48.590Z,16.70
2017-09-09T19:28:16.213Z,16.70
2017-09-09T19:30:43.936Z,16.70
2017-09-09T19:33:11.544Z,16.70
2017-09-09T19:35:39.930Z,16.70
2017-09-09T19:38:08.383Z,16.70
2017-09-09T19:40:36.659Z,16.70
2017-09-09T19:43:04.265Z,16.80
2017-09-09T19:45:32.184Z,16.90
2017-09-09T19:48:00.573Z,16.90
2017-09-09T19:50:28.169Z,16.90
2017-09-09T19:52:55.895Z,16.80
2017-09-09T19:55:23.506Z,16.80
2017-09-09T19:57:51.562Z,16.70
2017-09-09T20:00:20.889Z,16.30
2017-09-09T20:02:48.577Z,16.30
2017-09-09T20:05:16.979Z,16.20
2017-09-09T20:07:44.661Z,16.20
2017-09-09T20:10:13.281Z,16.30
2017-09-09T20:12:40.925Z,16.20
2017-09-09T20:15:09.199Z,16.30
2017-09-09T20:17:36.903Z,16.20
2017-09-09T20:20:05.240Z,16.30
2017-09-09T20:22:34.334Z,16.50
2017-09-09T20:25:01.966Z,16.60
2017-09-09T20:27:30.343Z,16.60
2017-09-09T20:29:58.775Z,16.60
2017-09-09T20:32:26.417Z,16.60
2017-09-09T20:34:54.218Z,16.70
2017-09-09T20:37:21.849Z,16.80
2017-09-09T20:39:49.471Z,16.90
2017-09-09T20:42:17.869Z,16.80
2017-09-09T20:44:46.274Z,16.70
2017-09-09T20:47:14.389Z,16.70
2017-09-09T20:49:41.998Z,16.70
2017-09-09T20:52:09.595Z,16.70
2017-09-09T20:54:37.249Z,16.60
2017-09-09T20:57:04.845Z,16.60
2017-09-09T20:59:33.579Z,16.70
2017-09-09T21:02:01.212Z,16.70
2017-09-09T21:04:29.584Z,16.50
2017-09-09T21:06:58.368Z,16.60
2017-09-09T21:09:26.740Z,16.70
2017-09-09T21:11:54.365Z,16.70
2017-09-09T21:14:22.340Z,16.80
2017-09-09T21:16:49.949Z,16.90
2017-09-09T21:19:18.364Z,16.80
2017-09-09T21:21:46.312Z,16.80
2017-09-09T21:24:13.908Z,16.80
2017-09-09T21:26:41.529Z,16.90
2017-09-09T21:29:09.188Z,16.70
2017-09-09T21:31:36.821Z,16.50
2017-09-09T21:34:05.595Z,16.60
2017-09-09T21:36:33.221Z,16.60
2017-09-09T21:39:00.859Z,16.70
2017-09-09T21:41:28.468Z,16.70
2017-09-09T21:43:56.106Z,16.80
2017-09-09T21:46:24.050Z,16.80
2017-09-09T21:48:51.652Z,16.80
2017-09-09T21:51:19.266Z,16.80
2017-09-09T21:53:47.302Z,16.70
2017-09-09T21:56:14.907Z,16.70
2017-09-09T21:58:42.496Z,16.70
2017-09-09T22:01:10.137Z,16.70
2017-09-09T22:03:37.852Z,16.60
2017-09-09T22:06:06.619Z,16.60
2017-09-09T22:08:34.226Z,16.60
2017-09-09T22:11:02.589Z,16.80
2017-09-09T22:13:31.362Z,16.80
2017-09-09T22:15:58.987Z,16.80
2017-09-09T22:18:26.583Z,16.80
2017-09-09T22:20:54.214Z,16.80
2017-09-09T22:23:21.810Z,16.80
2017-09-09T22:25:49.877Z,16.90
2017-09-09T22:28:17.472Z,16.90
